createdAt,value
2022-09-04T00:02:15.851Z,15.24
2022-09-04T00:05:07.293Z,15.28
2022-09-04T00:07:41.249Z,15.37
2022-09-04T00:10:16.696Z,15.27
2022-09-04T00:13:01.912Z,15.10
2022-09-04T00:15:36.258Z,15.11
2022-09-04T00:18:15.321Z,15.07
2022-09-04T00:21:00.793Z,15.19
2022-09-04T00:23:55.626Z,14.89
2022-09-04T00:26:50.130Z,14.89
2022-09-04T00:29:29.131Z,15.01
2022-09-04T00:32:10.633Z,15.09
2022-09-04T00:34:47.999Z,14.98
2022-09-04T00:37:21.410Z,14.90
2022-09-04T00:40:01.618Z,15.11
2022-09-04T00:43:13.617Z,14.89
2022-09-04T00:46:01.188Z,14.68
2022-09-04T00:49:12.157Z,14.64
2022-09-04T00:51:59.836Z,14.81
2022-09-04T00:54:26.273Z,14.64
2022-09-04T00:57:21.018Z,14.81
2022-09-04T01:00:01.583Z,14.62
2022-09-04T01:02:49.795Z,14.76
2022-09-04T01:09:12.579Z,14.74
2022-09-04T01:11:47.935Z,14.81
2022-09-04T01:14:34.422Z,14.60
2022-09-04T01:17:30.506Z,14.79
2022-09-04T01:20:20.133Z,14.61
2022-09-04T01:23:19.468Z,14.59
2022-09-04T01:26:32.704Z,14.54
2022-09-04T01:29:13.204Z,14.54
2022-09-04T01:31:57.604Z,14.45
2022-09-04T01:34:33.122Z,14.44
2022-09-04T01:37:24.510Z,14.44
2022-09-04T01:40:10.046Z,14.44
2022-09-04T01:42:47.639Z,14.36
2022-09-04T01:45:25.508Z,14.14
2022-09-04T01:47:56.930Z,14.40
2022-09-04T01:50:28.049Z,14.52
2022-09-04T01:53:24.686Z,14.24
2022-09-04T01:56:00.580Z,14.28
2022-09-04T01:58:27.618Z,14.14
2022-09-04T02:01:01.769Z,14.08
2022-09-04T02:04:20.242Z,14.18
2022-09-04T02:07:24.203Z,13.95
2022-09-04T02:10:06.429Z,14.16
2022-09-04T02:12:50.920Z,14.10
2022-09-04T02:15:37.616Z,14.16
2022-09-04T02:18:20.063Z,13.97
2022-09-04T02:20:55.181Z,13.90
2022-09-04T02:23:30.533Z,14.02
2022-09-04T02:26:04.031Z,14.00
2022-09-04T02:29:06.484Z,13.79
2022-09-04T02:31:51.454Z,13.69
2022-09-04T02:34:45.732Z,13.75
2022-09-04T02:37:27.341Z,13.79
2022-09-04T02:40:05.691Z,13.88
2022-09-04T02:42:58.453Z,13.80
2022-09-04T02:45:42.241Z,13.91
2022-09-04T02:48:44.661Z,13.88
2022-09-04T02:51:20.764Z,13.72
2022-09-04T02:53:55.210Z,13.71
2022-09-04T02:56:52.306Z,13.55
2022-09-04T02:59:25.180Z,13.70
2022-09-04T03:02:04.060Z,13.56
2022-09-04T03:04:39.530Z,13.57
2022-09-04T03:07:17.076Z,13.56
2022-09-04T03:09:55.232Z,13.54
2022-09-04T03:12:28.121Z,13.44
2022-09-04T03:15:29.368Z,13.57
2022-09-04T03:18:05.081Z,13.56
2022-09-04T03:20:44.491Z,13.64
2022-09-04T03:23:25.709Z,13.46
2022-09-04T03:26:10.006Z,13.59
2022-09-04T03:28:52.108Z,13.50
2022-09-04T03:31:28.861Z,13.34
2022-09-04T03:34:06.347Z,13.57
2022-09-04T03:36:40.245Z,13.45
2022-09-04T03:39:40.646Z,13.52
2022-09-04T03:42:31.873Z,13.38
2022-09-04T03:45:16.782Z,13.34
2022-09-04T03:48:20.201Z,13.21
2022-09-04T03:51:14.966Z,13.40
2022-09-04T03:53:45.603Z,13.36
2022-09-04T03:56:32.017Z,13.27
2022-09-04T03:59:04.211Z,13.33
2022-09-04T04:01:40.883Z,13.39
2022-09-04T04:04:16.289Z,13.27
2022-09-04T04:06:58.708Z,13.21
2022-09-04T04:09:40.092Z,13.32
2022-09-04T04:12:25.492Z,13.17
2022-09-04T04:15:05.162Z,12.98
2022-09-04T04:18:23.054Z,13.14
2022-09-04T04:20:58.255Z,13.19
2022-09-04T04:24:04.919Z,13.04
2022-09-04T04:27:04.048Z,13.20
2022-09-04T04:30:02.602Z,13.08
2022-09-04T04:33:18.848Z,13.08
2022-09-04T04:36:00.846Z,13.13
2022-09-04T04:39:02.505Z,13.02
2022-09-04T04:41:30.742Z,13.04
2022-09-04T04:44:45.566Z,12.89
2022-09-04T04:47:36.603Z,12.94
2022-09-04T04:50:32.734Z,12.90
2022-09-04T04:53:14.425Z,12.82
2022-09-04T04:55:49.473Z,12.77
2022-09-04T04:58:25.280Z,12.72
2022-09-04T05:01:09.482Z,12.77
2022-09-04T05:03:57.681Z,12.77
2022-09-04T05:06:48.699Z,12.58
2022-09-04T05:09:31.642Z,12.68
2022-09-04T05:12:34.853Z,12.69
2022-09-04T05:16:07.566Z,12.76
2022-09-04T05:18:45.220Z,12.58
2022-09-04T05:21:37.505Z,12.79
2022-09-04T05:24:44.879Z,12.78
2022-09-04T05:27:39.692Z,12.74
2022-09-04T05:30:15.821Z,12.82
2022-09-04T05:33:15.933Z,12.82
2022-09-04T05:36:12.320Z,12.76
2022-09-04T05:38:44.076Z,12.90
2022-09-04T05:41:33.674Z,12.69
2022-09-04T05:44:12.140Z,12.80
2022-09-04T05:46:49.363Z,13.01
2022-09-04T05:49:25.650Z,13.01
2022-09-04T05:52:43.475Z,13.02
2022-09-04T05:55:32.994Z,13.28
2022-09-04T05:58:29.906Z,13.10
2022-09-04T06:01:02.160Z,13.40
2022-09-04T06:03:31.297Z,13.46
2022-09-04T06:06:11.876Z,13.22
2022-09-04T06:09:02.865Z,13.54
2022-09-04T06:11:51.393Z,13.63
2022-09-04T06:14:56.042Z,13.70
2022-09-04T06:17:28.272Z,13.68
2022-09-04T06:20:30.741Z,14.13
2022-09-04T06:23:18.234Z,13.78
2022-09-04T06:26:11.887Z,13.91
2022-09-04T06:29:08.393Z,13.73
2022-09-04T06:32:19.983Z,13.90
2022-09-04T06:35:18.774Z,13.82
2022-09-04T06:38:07.029Z,14.11
2022-09-04T06:41:08.589Z,14.12
2022-09-04T06:43:50.914Z,14.47
2022-09-04T06:46:30.819Z,14.82
2022-09-04T06:49:08.654Z,14.62
2022-09-04T06:51:44.488Z,14.83
2022-09-04T06:54:32.211Z,14.95
2022-09-04T06:57:08.103Z,14.90
2022-09-04T06:59:46.210Z,14.90
2022-09-04T07:02:28.918Z,15.07
2022-09-04T07:05:10.027Z,15.17
2022-09-04T07:08:03.248Z,16.12
2022-09-04T07:10:32.674Z,16.19
2022-09-04T07:13:23.451Z,16.23
2022-09-04T07:16:05.921Z,16.25
2022-09-04T07:18:50.829Z,15.95
2022-09-04T07:21:52.527Z,16.03
2022-09-04T07:24:47.613Z,15.66
2022-09-04T07:27:23.259Z,15.59
2022-09-04T07:30:05.130Z,16.39
2022-09-04T07:32:56.033Z,16.43
2022-09-04T07:35:39.515Z,16.88
2022-09-04T07:38:21.851Z,16.80
2022-09-04T07:41:26.776Z,17.39
2022-09-04T07:44:05.410Z,17.82
2022-09-04T07:46:50.447Z,18.31
2022-09-04T07:49:37.838Z,18.83
2022-09-04T07:52:23.238Z,18.86
2022-09-04T07:55:28.871Z,18.45
2022-09-04T07:58:20.334Z,18.24
2022-09-04T08:01:11.807Z,18.54
2022-09-04T08:03:56.831Z,18.75
2022-09-04T08:06:44.736Z,18.61
2022-09-04T08:09:27.399Z,18.80
2022-09-04T08:12:02.499Z,19.34
2022-09-04T08:14:37.614Z,19.37
2022-09-04T08:17:37.115Z,19.25
2022-09-04T08:20:34.587Z,19.73
2022-09-04T08:23:25.873Z,20.18
2022-09-04T08:26:14.699Z,19.87
2022-09-04T08:28:45.560Z,20.54
2022-09-04T08:31:25.247Z,20.40
2022-09-04T08:34:22.394Z,20.76
2022-09-04T08:37:13.157Z,20.38
2022-09-04T08:39:49.622Z,20.82
2022-09-04T08:42:54.676Z,21.01
2022-09-04T08:45:33.035Z,20.61
2022-09-04T08:48:48.957Z,20.11
2022-09-04T08:51:50.274Z,20.46
2022-09-04T08:54:48.434Z,20.25
2022-09-04T08:57:47.299Z,20.32
2022-09-04T09:00:38.141Z,20.74
2022-09-04T09:03:13.394Z,21.38
2022-09-04T09:05:58.382Z,22.36
2022-09-04T09:09:02.178Z,22.95
2022-09-04T09:12:02.454Z,23.04
2022-09-04T09:15:04.004Z,22.80
2022-09-04T09:18:00.242Z,22.86
2022-09-04T09:20:28.467Z,23.13
2022-09-04T09:23:18.338Z,23.10
2022-09-04T09:25:51.057Z,22.89
2022-09-04T09:29:13.500Z,23.36
2022-09-04T09:32:16.822Z,23.29
2022-09-04T09:35:22.564Z,24.27
2022-09-04T09:38:15.606Z,23.73
2022-09-04T09:41:12.553Z,24.17
2022-09-04T09:44:21.859Z,24.40
2022-09-04T09:47:18.092Z,24.88
2022-09-04T09:49:55.654Z,24.66
2022-09-04T09:52:41.098Z,24.69
2022-09-04T09:55:16.282Z,24.74
2022-09-04T09:58:01.799Z,24.06
2022-09-04T10:01:01.183Z,23.56
2022-09-04T10:03:39.036Z,23.37
2022-09-04T10:06:27.112Z,23.26
2022-09-04T10:09:31.415Z,24.23
2022-09-04T10:12:21.924Z,24.30
2022-09-04T10:15:05.973Z,24.35
2022-09-04T10:18:03.419Z,23.79
2022-09-04T10:20:29.960Z,24.08
2022-09-04T10:23:05.816Z,24.51
2022-09-04T10:25:50.243Z,24.45
2022-09-04T10:28:41.626Z,24.49
2022-09-04T10:31:26.928Z,23.92
2022-09-04T10:34:24.962Z,23.99
2022-09-04T10:37:19.429Z,24.64
2022-09-04T10:40:21.505Z,24.27
2022-09-04T10:42:50.781Z,24.52
2022-09-04T10:45:38.999Z,24.77
2022-09-04T10:48:14.994Z,23.77
2022-09-04T10:51:05.683Z,24.50
2022-09-04T10:54:07.745Z,24.03
2022-09-04T10:56:47.304Z,24.40
2022-09-04T10:59:37.087Z,24.68
2022-09-04T11:02:15.503Z,24.70
2022-09-04T11:04:52.585Z,24.61
2022-09-04T11:07:43.165Z,24.41
2022-09-04T11:10:41.899Z,25.10
2022-09-04T11:13:23.467Z,24.97
2022-09-04T11:16:02.260Z,24.46
2022-09-04T11:18:38.065Z,24.43
2022-09-04T11:21:21.037Z,25.01
2022-09-04T11:24:17.283Z,24.39
2022-09-04T11:27:07.941Z,24.99
2022-09-04T11:29:54.367Z,25.06
2022-09-04T11:32:43.708Z,25.21
2022-09-04T11:35:19.766Z,25.41
2022-09-04T11:38:43.674Z,26.42
2022-09-04T11:41:51.163Z,26.61
2022-09-04T11:44:38.272Z,27.30
2022-09-04T11:47:20.022Z,27.50
2022-09-04T11:50:01.683Z,28.60
2022-09-04T11:53:12.783Z,26.66
2022-09-04T11:56:04.108Z,26.86
2022-09-04T11:58:50.875Z,27.48
2022-09-04T12:01:32.267Z,28.35
2022-09-04T12:04:23.035Z,28.37
2022-09-04T12:07:02.377Z,28.55
2022-09-04T12:09:51.338Z,27.14
2022-09-04T12:12:27.982Z,25.28
2022-09-04T12:15:12.653Z,23.27
2022-09-04T12:17:50.043Z,23.00
2022-09-04T12:20:24.158Z,22.65
2022-09-04T12:23:21.616Z,22.69
2022-09-04T12:26:17.994Z,22.25
2022-09-04T12:29:19.355Z,22.62
2022-09-04T12:32:07.161Z,22.98
2022-09-04T12:34:54.461Z,22.76
2022-09-04T12:37:36.119Z,22.57
2022-09-04T12:40:22.014Z,22.26
2022-09-04T12:43:01.061Z,24.08
2022-09-04T12:45:54.776Z,25.38
2022-09-04T12:48:24.389Z,24.93
2022-09-04T12:51:05.624Z,26.01
2022-09-04T12:53:52.471Z,26.21
2022-09-04T12:56:26.258Z,26.00
2022-09-04T12:59:07.413Z,26.47
2022-09-04T13:01:56.827Z,25.76
2022-09-04T13:04:58.582Z,23.43
2022-09-04T13:07:42.685Z,22.22
2022-09-04T13:10:33.685Z,22.27
2022-09-04T13:13:09.884Z,22.14
2022-09-04T13:16:14.148Z,22.05
2022-09-04T13:18:41.143Z,22.40
2022-09-04T13:21:22.610Z,22.43
2022-09-04T13:23:57.240Z,22.17
2022-09-04T13:27:02.550Z,21.96
2022-09-04T13:30:03.591Z,21.83
2022-09-04T13:32:59.607Z,21.83
2022-09-04T13:35:44.760Z,22.04
2022-09-04T13:38:15.323Z,22.37
2022-09-04T13:41:18.350Z,22.31
2022-09-04T13:44:06.649Z,21.79
2022-09-04T13:46:39.021Z,21.96
2022-09-04T13:49:44.197Z,22.11
2022-09-04T13:52:24.423Z,22.43
2022-09-04T13:55:13.560Z,22.40
2022-09-04T13:57:53.230Z,22.65
2022-09-04T14:00:21.434Z,22.38
2022-09-04T14:02:55.830Z,22.29
2022-09-04T14:05:25.318Z,22.36
2022-09-04T14:07:59.631Z,21.91
2022-09-04T14:10:50.786Z,22.04
2022-09-04T14:13:52.980Z,21.74
2022-09-04T14:16:19.838Z,22.09
2022-09-04T14:19:21.947Z,22.40
2022-09-04T14:21:52.390Z,22.20
2022-09-04T14:24:43.754Z,22.55
2022-09-04T14:27:46.370Z,22.40
2022-09-04T14:30:24.850Z,22.23
2022-09-04T14:33:37.120Z,22.40
2022-09-04T14:36:11.471Z,22.62
2022-09-04T14:38:37.988Z,22.41
2022-09-04T14:41:38.124Z,22.41
2022-09-04T14:44:35.433Z,22.35
2022-09-04T14:47:30.382Z,22.27
2022-09-04T14:50:02.988Z,21.88
2022-09-04T14:52:39.924Z,21.84
2022-09-04T14:55:12.976Z,21.92
2022-09-04T14:57:55.257Z,21.87
2022-09-04T15:00:23.417Z,21.51
2022-09-04T15:03:17.379Z,21.70
2022-09-04T15:05:55.697Z,21.41
2022-09-04T15:08:38.120Z,21.62
2022-09-04T15:11:46.339Z,21.43
2022-09-04T15:14:32.968Z,21.50
2022-09-04T15:17:08.494Z,21.75
2022-09-04T15:19:55.116Z,21.44
2022-09-04T15:22:44.682Z,21.46
2022-09-04T15:26:00.415Z,21.28
2022-09-04T15:28:38.366Z,21.46
2022-09-04T15:31:10.006Z,21.74
2022-09-04T15:33:40.810Z,21.54
2022-09-04T15:36:14.956Z,21.51
2022-09-04T15:38:57.427Z,21.49
2022-09-04T15:41:34.081Z,21.48
2022-09-04T15:44:30.283Z,21.26
2022-09-04T15:47:15.970Z,21.47
2022-09-04T15:49:59.049Z,21.43
2022-09-04T15:53:04.708Z,21.50
2022-09-04T15:55:34.600Z,21.28
2022-09-04T15:58:19.966Z,21.25
2022-09-04T16:01:13.279Z,21.34
2022-09-04T16:03:43.625Z,21.33
2022-09-04T16:06:27.184Z,21.62
2022-09-04T16:09:01.125Z,21.41
2022-09-04T16:11:46.068Z,21.50
2022-09-04T16:14:27.769Z,21.61
2022-09-04T16:17:00.045Z,21.57
2022-09-04T16:19:38.535Z,21.55
2022-09-04T16:22:20.674Z,21.41
2022-09-04T16:24:53.930Z,21.68
2022-09-04T16:27:24.370Z,21.40
2022-09-04T16:29:58.018Z,21.39
2022-09-04T16:32:29.497Z,21.56
2022-09-04T16:34:58.842Z,21.58
2022-09-04T16:37:42.425Z,21.45
2022-09-04T16:40:56.192Z,21.25
2022-09-04T16:43:34.079Z,21.36
2022-09-04T16:46:10.301Z,21.31
2022-09-04T16:48:43.278Z,21.41
2022-09-04T16:51:39.285Z,21.35
2022-09-04T16:54:29.062Z,21.23
2022-09-04T16:57:12.112Z,21.06
2022-09-04T16:59:43.383Z,21.24
2022-09-04T17:02:35.827Z,21.11
2022-09-04T17:05:19.424Z,21.19
2022-09-04T17:08:08.609Z,21.18
2022-09-04T17:11:22.154Z,20.94
2022-09-04T17:13:55.466Z,21.34
2022-09-04T17:16:24.813Z,21.14
2022-09-04T17:18:55.417Z,21.02
2022-09-04T17:27:30.546Z,20.74
2022-09-04T17:29:09.938Z,20.70
2022-09-04T17:29:13.162Z,20.76
2022-09-04T17:31:01.405Z,20.57
2022-09-04T17:39:59.099Z,20.70
2022-09-04T17:40:40.356Z,20.54
2022-09-04T17:40:55.715Z,20.61
2022-09-04T17:42:22.812Z,20.59
2022-09-04T17:45:07.442Z,20.45
2022-09-04T17:47:42.764Z,20.54
2022-09-04T17:50:25.436Z,20.46
2022-09-04T17:53:00.267Z,20.28
2022-09-04T17:55:30.708Z,20.39
2022-09-04T17:58:49.422Z,20.27
2022-09-04T18:01:28.675Z,20.47
2022-09-04T18:04:20.010Z,20.52
2022-09-04T18:06:51.503Z,20.37
2022-09-04T18:09:31.923Z,20.28
2022-09-04T18:12:31.430Z,20.24
2022-09-04T18:15:33.515Z,20.29
2022-09-04T18:18:06.848Z,19.93
2022-09-04T18:20:57.491Z,19.93
2022-09-04T18:23:51.574Z,19.88
2022-09-04T18:26:21.661Z,19.72
2022-09-04T18:29:30.460Z,19.75
2022-09-04T18:37:16.272Z,19.64
2022-09-04T18:37:18.585Z,19.65
2022-09-04T18:38:09.493Z,19.58
2022-09-04T18:41:26.644Z,19.52
2022-09-04T18:50:39.646Z,19.46
2022-09-04T18:50:39.792Z,19.62
2022-09-04T18:50:51.125Z,19.38
2022-09-04T18:52:19.874Z,19.46
2022-09-04T18:54:49.891Z,19.28
2022-09-04T18:57:29.648Z,19.39
2022-09-04T19:00:08.694Z,19.16
2022-09-04T19:02:55.222Z,19.15
2022-09-04T19:05:32.943Z,19.19
2022-09-04T19:08:21.980Z,19.10
2022-09-04T19:11:20.806Z,18.97
2022-09-04T19:14:10.299Z,19.00
2022-09-04T19:16:43.512Z,19.01
2022-09-04T19:19:47.758Z,18.92
2022-09-04T19:22:28.344Z,18.83
2022-09-04T19:25:07.890Z,18.76
2022-09-04T19:27:42.515Z,18.86
2022-09-04T19:30:19.810Z,18.75
2022-09-04T19:32:59.631Z,18.75
2022-09-04T19:35:35.061Z,18.62
2022-09-04T19:44:15.332Z,18.71
2022-09-04T19:46:00.637Z,18.48
2022-09-04T19:46:17.427Z,18.61
2022-09-04T19:47:49.650Z,18.46
2022-09-04T19:53:19.839Z,18.41
2022-09-04T19:53:49.428Z,18.43
2022-09-04T19:56:28.203Z,18.35
2022-09-04T19:59:11.421Z,18.36
2022-09-04T20:01:53.271Z,18.25
2022-09-04T20:04:41.281Z,18.23
2022-09-04T20:07:17.968Z,18.27
2022-09-04T20:09:52.505Z,18.18
2022-09-04T20:12:21.492Z,18.08
2022-09-04T20:14:54.932Z,18.21
2022-09-04T20:17:44.611Z,18.02
2022-09-04T20:20:46.965Z,18.05
2022-09-04T20:23:34.546Z,17.96
2022-09-04T20:26:17.930Z,17.98
2022-09-04T20:28:53.213Z,18.00
2022-09-04T20:31:45.133Z,17.70
2022-09-04T20:34:38.859Z,17.84
2022-09-04T20:37:44.568Z,17.82
2022-09-04T20:40:40.554Z,17.92
2022-09-04T20:43:24.396Z,17.80
2022-09-04T20:52:43.140Z,17.72
2022-09-04T20:52:57.425Z,17.64
2022-09-04T20:52:59.189Z,17.77
2022-09-04T20:55:09.110Z,17.53
2022-09-04T21:01:36.530Z,17.51
2022-09-04T21:03:10.269Z,17.49
2022-09-04T21:04:15.387Z,17.47
2022-09-04T21:07:08.753Z,17.52
2022-09-04T21:09:57.006Z,17.51
2022-09-04T21:12:37.826Z,17.50
2022-09-04T21:15:31.942Z,17.39
2022-09-04T21:17:58.437Z,17.47
2022-09-04T21:20:41.625Z,17.30
2022-09-04T21:23:33.021Z,17.23
2022-09-04T21:26:17.676Z,17.06
2022-09-04T21:28:55.973Z,17.13
2022-09-04T21:32:19.351Z,17.09
2022-09-04T21:35:11.352Z,17.19
2022-09-04T21:38:10.022Z,17.01
2022-09-04T21:41:03.504Z,17.14
2022-09-04T21:44:07.126Z,17.03
2022-09-04T21:47:07.401Z,17.34
2022-09-04T21:49:55.716Z,17.19
2022-09-04T21:52:22.638Z,17.11
2022-09-04T21:58:29.884Z,17.11
2022-09-04T22:02:36.346Z,17.08
2022-09-04T22:02:36.516Z,17.07
2022-09-04T22:04:29.254Z,17.03
2022-09-04T22:11:39.857Z,17.00
2022-09-04T22:13:29.049Z,16.91
2022-09-04T22:13:43.203Z,16.87
2022-09-04T22:16:04.438Z,16.81
2022-09-04T22:18:50.623Z,16.81
2022-09-04T22:21:40.500Z,16.83
2022-09-04T22:24:43.612Z,16.65
2022-09-04T22:27:35.495Z,16.50
2022-09-04T22:30:22.337Z,16.43
2022-09-04T22:32:57.690Z,16.58
2022-09-04T22:36:01.515Z,16.55
2022-09-04T22:38:56.969Z,16.46
2022-09-04T22:41:41.841Z,16.35
2022-09-04T22:44:34.227Z,16.24
2022-09-04T22:47:25.675Z,16.35
2022-09-04T22:49:57.288Z,16.31
2022-09-04T22:52:37.851Z,16.19
2022-09-04T22:55:39.711Z,16.14
2022-09-04T22:58:43.942Z,16.05
2022-09-04T23:01:23.269Z,16.06
2022-09-04T23:04:14.520Z,16.04
2022-09-04T23:13:43.349Z,16.01
2022-09-04T23:13:49.836Z,15.87
2022-09-04T23:13:58.660Z,15.94
2022-09-04T23:16:40.480Z,15.83
2022-09-04T23:25:56.860Z,15.76
2022-09-04T23:26:44.301Z,15.65
2022-09-04T23:26:52.826Z,15.69
2022-09-04T23:28:52.521Z,15.62
2022-09-04T23:31:29.425Z,15.74
2022-09-04T23:34:11.097Z,15.58
2022-09-04T23:37:04.442Z,15.62
2022-09-04T23:39:46.400Z,15.61
2022-09-04T23:42:40.463Z,15.57
2022-09-04T23:45:28.438Z,15.50
2022-09-04T23:47:57.622Z,15.42
2022-09-04T23:50:47.105Z,15.56
2022-09-04T23:53:44.148Z,15.37
2022-09-04T23:56:39.407Z,15.28
2022-09-04T23:59:37.242Z,15.26
